Time;durP1;ratioP1;P1;durP2;ratioP2;P2;SDS_P1;SDS_P2;PMS_P1;PMS_P2;Temp;Humidity;BMP_temperature;BMP_pressure;BME280_temperature;BME280_humidity;BME280_pressure;Samples;Min_cycle;Max_cycle;Signal;HPM_P1;HPM_P2
2022/12/24 00:00:23;;;;;;;;;;;;;;;7.59;100.00;96018.88;5075220;28;19960;-73
2022/12/24 00:02:50;;;;;;;;;;;;;;;7.61;100.00;96018.69;5074755;28;19962;-74
2022/12/24 00:05:16;;;;;;;;;;;;;;;7.61;100.00;96016.06;5057268;28;19952;-73
2022/12/24 00:07:42;;;;;;;;;;;;;;;7.63;100.00;96024.50;5074929;28;20298;-73
2022/12/24 00:10:08;;;;;;;;;;;;;;;7.60;100.00;96019.69;5074629;28;19964;-73
2022/12/24 00:12:34;;;;;;;;;;;;;;;7.57;100.00;96007.84;5075373;28;19951;-73
2022/12/24 00:15:00;;;;;;;;;;;;;;;7.58;100.00;96016.47;5074844;28;20295;-73
2022/12/24 00:17:26;;;;;;;;;;;;;;;7.59;100.00;96020.69;5074924;28;19982;-73
2022/12/24 00:19:51;;;;;;;;;;;;;;;7.58;100.00;96025.13;5074714;28;19958;-73
2022/12/24 00:22:17;;;;;;;;;;;;;;;7.56;100.00;96028.94;5074833;28;19959;-73
2022/12/24 00:24:43;;;;;;;;;;;;;;;7.55;100.00;96028.13;5074628;28;20314;-73
2022/12/24 00:27:09;;;;;;;;;;;;;;;7.55;100.00;96032.56;5074915;28;20043;-73
2022/12/24 00:29:35;;;;;;;;;;;;;;;7.52;100.00;96026.75;5074526;28;20009;-74
2022/12/24 00:32:01;;;;;;;;;;;;;;;7.49;100.00;96026.38;5074483;28;19953;-73
2022/12/24 00:34:27;;;;;;;;;;;;;;;7.48;100.00;96022.97;5074266;28;20394;-73
2022/12/24 00:36:52;;;;;;;;;;;;;;;7.44;100.00;96027.00;5074616;28;20485;-73
2022/12/24 00:39:18;;;;;;;;;;;;;;;7.41;100.00;96031.81;5074306;28;20309;-73
2022/12/24 00:41:44;;;;;;;;;;;;;;;7.36;100.00;96029.03;5074230;28;20417;-73
2022/12/24 00:44:10;;;;;;;;;;;;;;;7.37;100.00;96043.66;5074537;28;20005;-74
2022/12/24 00:46:37;;;;;;;;;;;;;;;7.35;100.00;96033.47;5073256;28;19958;-73
2022/12/24 00:49:04;;;;;;;;;;;;;;;7.35;100.00;96035.25;5074358;28;19958;-73
2022/12/24 00:51:30;;;;;;;;;;;;;;;7.32;100.00;96034.66;5056421;28;19956;-74
2022/12/24 00:53:59;;;;;;;;;;;;;;;7.30;100.00;96047.09;5074048;28;19950;-73
2022/12/24 00:56:24;;;;;;;;;;;;;;;7.27;100.00;96051.97;5074579;28;19961;-73
2022/12/24 00:58:51;;;;;;;;;;;;;;;7.24;100.00;96054.97;5074132;28;19957;-73
2022/12/24 01:01:17;;;;;;;;;;;;;;;7.19;100.00;96054.78;5074589;28;20314;-73
2022/12/24 01:03:43;;;;;;;;;;;;;;;7.16;100.00;96060.41;5073302;28;19957;-73
2022/12/24 01:06:10;;;;;;;;;;;;;;;7.12;100.00;96057.41;5074080;28;20050;-73
2022/12/24 01:08:36;;;;;;;;;;;;;;;7.10;100.00;96069.88;5073697;28;20458;-73
2022/12/24 01:11:03;;;;;;;;;;;;;;;7.05;100.00;96073.06;5074369;28;19958;-73
2022/12/24 01:13:29;;;;;;;;;;;;;;;7.01;100.00;96077.06;5073786;28;19945;-73
2022/12/24 01:15:55;;;;;;;;;;;;;;;6.96;100.00;96084.72;5073729;28;19960;-73
2022/12/24 01:18:22;;;;;;;;;;;;;;;6.88;100.00;96088.34;5073712;28;19954;-72
2022/12/24 01:20:58;;;;;;;;;;;;;;;6.82;100.00;96091.75;5073877;28;19949;-73
2022/12/24 01:23:25;;;;;;;;;;;;;;;6.80;100.00;96090.34;5073910;28;20403;-73
2022/12/24 01:25:51;;;;;;;;;;;;;;;6.79;100.00;96096.59;5073655;28;20316;-73
2022/12/24 01:28:17;;;;;;;;;;;;;;;6.77;100.00;96093.38;5073751;28;19982;-73
2022/12/24 01:30:44;;;;;;;;;;;;;;;6.74;100.00;96092.00;5073775;28;19958;-74
2022/12/24 01:33:09;;;;;;;;;;;;;;;6.72;100.00;96117.44;5073546;28;20423;-73
2022/12/24 01:35:42;;;;;;;;;;;;;;;6.69;100.00;96112.63;5073403;28;19958;-73
2022/12/24 01:38:10;;;;;;;;;;;;;;;6.65;100.00;96109.59;5074359;28;19974;-73
2022/12/24 01:43:26;;;;;;;;;;;;;;;6.62;100.00;96123.06;5074023;28;19951;-73
2022/12/24 01:45:56;;;;;;;;;;;;;;;6.59;100.00;96133.84;5080089;28;19964;-73
2022/12/24 01:48:29;;;;;;;;;;;;;;;6.58;100.00;96128.88;5080192;28;19968;-73
2022/12/24 01:51:08;;;;;;;;;;;;;;;6.56;100.00;96128.25;5070958;28;20332;-73
2022/12/24 01:53:35;;;;;;;;;;;;;;;6.55;100.00;96134.47;5072062;28;19957;-73
2022/12/24 01:56:03;;;;;;;;;;;;;;;6.52;100.00;96133.06;5067919;28;20315;-73
2022/12/24 01:58:29;;;;;;;;;;;;;;;6.50;100.00;96133.25;5080273;28;20405;-73
2022/12/24 02:00:55;;;;;;;;;;;;;;;6.48;100.00;96144.88;5080155;28;19955;-73
2022/12/24 02:03:20;;;;;;;;;;;;;;;6.45;100.00;96150.50;5080620;28;19958;-73
2022/12/24 02:05:48;;;;;;;;;;;;;;;6.43;100.00;96155.09;5080136;28;19998;-73
2022/12/24 02:08:14;;;;;;;;;;;;;;;6.41;100.00;96162.31;5079829;28;19965;-73
2022/12/24 02:10:40;;;;;;;;;;;;;;;6.39;100.00;96166.91;5080055;28;19953;-73
2022/12/24 02:13:07;;;;;;;;;;;;;;;6.36;100.00;96157.69;5080123;28;20042;-73
2022/12/24 02:15:56;;;;;;;;;;;;;;;6.35;100.00;96171.72;5080070;28;19962;-73
2022/12/24 02:18:30;;;;;;;;;;;;;;;6.34;100.00;96159.72;5065056;28;19962;-73
2022/12/24 02:21:15;;;;;;;;;;;;;;;6.33;100.00;96176.31;5079902;28;19954;-73
2022/12/24 02:24:01;;;;;;;;;;;;;;;6.33;100.00;96176.31;5079351;28;19946;-73
2022/12/24 02:26:39;;;;;;;;;;;;;;;6.33;100.00;96176.31;5065731;28;19959;-73
2022/12/24 02:29:21;;;;;;;;;;;;;;;6.34;100.00;96188.34;5079980;28;20425;-73
2022/12/24 02:32:00;;;;;;;;;;;;;;;6.35;100.00;96192.56;5079030;28;19960;-73
2022/12/24 02:34:35;;;;;;;;;;;;;;;6.36;100.00;96191.53;5079768;28;20326;-73
2022/12/24 02:37:20;;;;;;;;;;;;;;;6.36;100.00;96180.31;5080066;28;20008;-73
2022/12/24 02:40:07;;;;;;;;;;;;;;;6.35;100.00;96187.34;5079794;28;19959;-73
2022/12/24 02:42:46;;;;;;;;;;;;;;;6.36;100.00;96188.13;5079164;28;19950;-74
2022/12/24 02:45:14;;;;;;;;;;;;;;;6.37;100.00;96206.19;5079910;28;20349;-73
2022/12/24 02:47:41;;;;;;;;;;;;;;;6.38;100.00;96193.94;5079493;28;19975;-73
2022/12/24 02:50:09;;;;;;;;;;;;;;;6.40;100.00;96202.38;5079616;28;19956;-74
2022/12/24 02:52:39;;;;;;;;;;;;;;;6.39;100.00;96198.97;5079843;28;19952;-73
2022/12/24 02:55:10;;;;;;;;;;;;;;;6.42;100.00;96192.56;5078965;28;19957;-73
2022/12/24 02:57:36;;;;;;;;;;;;;;;6.42;100.00;96201.16;5076038;28;19954;-73
2022/12/24 03:00:04;;;;;;;;;;;;;;;6.44;100.00;96204.38;5076531;28;20365;-73
2022/12/24 03:02:39;;;;;;;;;;;;;;;6.45;100.00;96206.00;5075922;28;20001;-74
2022/12/24 03:05:43;;;;;;;;;;;;;;;6.45;100.00;96197.38;5045365;28;19948;-73
2022/12/24 03:08:26;;;;;;;;;;;;;;;6.47;100.00;96206.59;4994072;28;19966;-73
2022/12/24 03:10:55;;;;;;;;;;;;;;;6.48;100.00;96199.59;4994896;28;20468;-73
2022/12/24 03:13:21;;;;;;;;;;;;;;;6.49;100.00;96211.63;5042489;28;20316;-73
2022/12/24 03:15:48;;;;;;;;;;;;;;;6.51;100.00;96207.03;5076352;28;19962;-72
2022/12/24 03:18:16;;;;;;;;;;;;;;;6.52;100.00;96213.03;5076087;28;19952;-73
2022/12/24 03:20:48;;;;;;;;;;;;;;;6.51;100.00;96212.22;5067261;28;19946;-72
2022/12/24 03:23:14;;;;;;;;;;;;;;;6.52;100.00;96228.66;5076228;28;19951;-73
2022/12/24 03:25:42;;;;;;;;;;;;;;;6.52;100.00;96233.88;5076092;28;19958;-73
2022/12/24 03:28:10;;;;;;;;;;;;;;;6.50;100.00;96244.47;5075816;28;19974;-73
2022/12/24 03:30:38;;;;;;;;;;;;;;;6.50;100.00;96242.66;5075934;28;19950;-73
2022/12/24 03:33:04;;;;;;;;;;;;;;;6.49;100.00;96235.88;5075954;28;19955;-73
2022/12/24 03:35:30;;;;;;;;;;;;;;;6.50;100.00;96241.88;5075522;28;20465;-73
2022/12/24 03:37:56;;;;;;;;;;;;;;;6.49;100.00;96238.47;5075759;28;20325;-73
2022/12/24 03:40:22;;;;;;;;;;;;;;;6.49;100.00;96250.69;5057971;28;19958;-73
2022/12/24 03:42:48;;;;;;;;;;;;;;;6.50;100.00;96249.69;5075664;28;19954;-72
2022/12/24 03:45:13;;;;;;;;;;;;;;;6.52;100.00;96259.91;5075616;28;20325;-73
2022/12/24 03:47:39;;;;;;;;;;;;;;;6.54;100.00;96248.28;5075317;28;20012;-73
2022/12/24 03:50:06;;;;;;;;;;;;;;;6.55;100.00;96262.13;5075704;28;20383;-73
2022/12/24 03:52:32;;;;;;;;;;;;;;;6.56;100.00;96258.53;5075363;28;19960;-73
2022/12/24 03:54:57;;;;;;;;;;;;;;;6.57;100.00;96258.31;5075198;28;19961;-73
2022/12/24 03:57:24;;;;;;;;;;;;;;;6.57;100.00;96268.72;5075244;28;20042;-73
2022/12/24 03:59:50;;;;;;;;;;;;;;;6.58;100.00;96259.13;5075465;28;19960;-73
2022/12/24 04:02:16;;;;;;;;;;;;;;;6.58;100.00;96265.13;5075066;28;19981;-73
2022/12/24 04:04:41;;;;;;;;;;;;;;;6.60;100.00;96251.94;5075316;28;19959;-73
2022/12/24 04:07:07;;;;;;;;;;;;;;;6.61;100.00;96266.53;5074173;28;20048;-73
2022/12/24 04:09:33;;;;;;;;;;;;;;;6.61;100.00;96264.72;5056891;28;19966;-73
2022/12/24 04:11:59;;;;;;;;;;;;;;;6.61;100.00;96263.94;5074945;28;20408;-73
2022/12/24 04:14:25;;;;;;;;;;;;;;;6.61;100.00;96261.34;5075224;28;19993;-73
2022/12/24 04:16:51;;;;;;;;;;;;;;;6.59;100.00;96261.53;5075045;28;20398;-73
2022/12/24 04:19:17;;;;;;;;;;;;;;;6.59;100.00;96269.34;5074720;28;19960;-73
2022/12/24 04:21:43;;;;;;;;;;;;;;;6.58;100.00;96283.38;5074797;28;20376;-73
2022/12/24 04:24:08;;;;;;;;;;;;;;;6.57;100.00;96286.16;5075059;28;20051;-73
2022/12/24 04:26:34;;;;;;;;;;;;;;;6.56;100.00;96269.75;5074698;28;19956;-73
2022/12/24 04:29:00;;;;;;;;;;;;;;;6.56;100.00;96271.56;5075293;28;19965;-73
2022/12/24 04:31:26;;;;;;;;;;;;;;;6.55;100.00;96264.72;5074520;28;20001;-73
2022/12/24 04:33:52;;;;;;;;;;;;;;;6.53;100.00;96272.75;5074752;28;20386;-73
2022/12/24 04:36:18;;;;;;;;;;;;;;;6.52;100.00;96278.94;5074360;28;19977;-73
2022/12/24 04:38:45;;;;;;;;;;;;;;;6.50;100.00;96273.13;5074446;28;19963;-73
2022/12/24 04:41:16;;;;;;;;;;;;;;;6.48;100.00;96278.53;5074702;28;19959;-73
2022/12/24 04:43:42;;;;;;;;;;;;;;;6.47;100.00;96297.78;5074575;28;19950;-73
2022/12/24 04:46:09;;;;;;;;;;;;;;;6.47;100.00;96300.38;5056295;28;20479;-73
2022/12/24 04:48:36;;;;;;;;;;;;;;;6.45;100.00;96278.13;5074759;28;20307;-73
2022/12/24 04:51:02;;;;;;;;;;;;;;;6.43;100.00;96293.94;5074461;28;19953;-73
2022/12/24 04:53:29;;;;;;;;;;;;;;;6.43;100.00;96298.38;5073806;28;20403;-73
2022/12/24 04:55:55;;;;;;;;;;;;;;;6.41;100.00;96305.56;5073706;28;19952;-73
2022/12/24 04:58:21;;;;;;;;;;;;;;;6.41;100.00;96310.78;5074315;28;20043;-73
2022/12/24 05:00:46;;;;;;;;;;;;;;;6.43;100.00;96314.00;5074163;28;19953;-73
2022/12/24 05:03:12;;;;;;;;;;;;;;;6.43;100.00;96309.59;5074116;28;20395;-73
2022/12/24 05:05:38;;;;;;;;;;;;;;;6.42;100.00;96315.78;5073934;28;19951;-73
2022/12/24 05:08:05;;;;;;;;;;;;;;;6.41;100.00;96310.78;5074277;28;20033;-73
2022/12/24 05:10:31;;;;;;;;;;;;;;;6.40;100.00;96317.78;5074423;28;19951;-73
2022/12/24 05:12:57;;;;;;;;;;;;;;;6.41;100.00;96310.78;5073931;28;19948;-73
2022/12/24 05:15:23;;;;;;;;;;;;;;;6.41;100.00;96310.78;5074156;28;19991;-73
2022/12/24 05:17:49;;;;;;;;;;;;;;;6.44;100.00;96313.00;5073821;28;19951;-73
2022/12/24 05:20:15;;;;;;;;;;;;;;;6.44;100.00;96321.59;5073639;28;19956;-73
2022/12/24 05:28:15;;;;;;;;;;;;;;;6.44;100.00;96310.38;5055950;28;19964;-73
2022/12/24 05:30:41;;;;;;;;;;;;;;;6.44;100.00;96315.59;5073494;28;20436;-73
2022/12/24 05:33:07;;;;;;;;;;;;;;;6.43;100.00;96309.59;5073743;28;19984;-73
2022/12/24 05:35:33;;;;;;;;;;;;;;;6.42;100.00;96304.56;5074414;28;20447;-73
2022/12/24 05:37:59;;;;;;;;;;;;;;;6.42;100.00;96307.16;5073399;28;20425;-73
2022/12/24 05:40:25;;;;;;;;;;;;;;;6.41;100.00;96310.78;5073775;28;19956;-73
2022/12/24 05:42:51;;;;;;;;;;;;;;;6.39;100.00;96305.75;5073426;28;19962;-73
2022/12/24 05:45:17;;;;;;;;;;;;;;;6.40;100.00;96306.56;5073973;28;19962;-73
2022/12/24 05:47:42;;;;;;;;;;;;;;;6.37;100.00;96302.53;5073982;28;19950;-73
2022/12/24 05:50:08;;;;;;;;;;;;;;;6.36;100.00;96306.13;5073758;28;20297;-73
2022/12/24 05:52:34;;;;;;;;;;;;;;;6.33;100.00;96306.53;5055778;28;20317;-73
2022/12/24 05:55:00;;;;;;;;;;;;;;;6.30;100.00;96305.13;5055759;28;19955;-73
2022/12/24 05:57:26;;;;;;;;;;;;;;;6.28;100.00;96309.72;5055611;28;20387;-73
2022/12/24 05:59:52;;;;;;;;;;;;;;;6.25;100.00;96314.50;5073659;28;20060;-73
2022/12/24 06:02:18;;;;;;;;;;;;;;;6.23;100.00;96309.50;5073246;28;19956;-73
2022/12/24 06:04:44;;;;;;;;;;;;;;;6.22;100.00;96309.69;5073797;28;20003;-73
2022/12/24 06:07:09;;;;;;;;;;;;;;;6.21;100.00;96321.09;5073439;28;19954;-73
2022/12/24 06:09:35;;;;;;;;;;;;;;;6.20;100.00;96320.31;5073295;28;20016;-73
2022/12/24 06:12:01;;;;;;;;;;;;;;;6.20;100.00;96322.09;5073255;28;19987;-73
2022/12/24 06:14:27;;;;;;;;;;;;;;;6.14;100.00;96310.66;5073174;28;19966;-73
2022/12/24 06:16:53;;;;;;;;;;;;;;;6.12;100.00;96312.66;5072591;28;19997;-73
2022/12/24 06:19:19;;;;;;;;;;;;;;;6.09;100.00;96294.81;5073394;28;19958;-73
2022/12/24 06:21:45;;;;;;;;;;;;;;;6.07;100.00;96296.81;5073627;28;19959;-73
2022/12/24 06:24:11;;;;;;;;;;;;;;;6.08;100.00;96293.19;5073426;28;19957;-73
2022/12/24 06:26:37;;;;;;;;;;;;;;;6.09;100.00;96297.44;5073182;28;19949;-74
2022/12/24 06:29:02;;;;;;;;;;;;;;;6.09;100.00;96305.25;5073739;28;20415;-73
2022/12/24 06:31:28;;;;;;;;;;;;;;;6.08;100.00;96304.41;5075069;28;20407;-73
2022/12/24 06:33:54;;;;;;;;;;;;;;;6.05;100.00;96312.63;5076904;28;20324;-73
2022/12/24 06:36:21;;;;;;;;;;;;;;;6.00;100.00;96312.38;5076900;28;19979;-73
2022/12/24 06:38:47;;;;;;;;;;;;;;;5.99;100.00;96333.41;5076784;28;19956;-73
2022/12/24 06:41:14;;;;;;;;;;;;;;;5.98;100.00;96323.97;5076703;28;20320;-73
2022/12/24 06:43:44;;;;;;;;;;;;;;;6.00;100.00;96328.00;5076632;28;20300;-73
2022/12/24 06:46:10;;;;;;;;;;;;;;;5.99;100.00;96323.81;5076758;28;19950;-73
2022/12/24 06:48:36;;;;;;;;;;;;;;;5.99;100.00;96333.41;5058727;28;20014;-73
2022/12/24 06:51:02;;;;;;;;;;;;;;;5.98;100.00;96343.00;5076452;28;19949;-73
2022/12/24 06:53:28;;;;;;;;;;;;;;;5.99;100.00;96344.63;5076743;28;19951;-73
2022/12/24 06:56:04;;;;;;;;;;;;;;;5.99;100.00;96349.03;5076336;28;19962;-73
2022/12/24 06:58:30;;;;;;;;;;;;;;;5.99;100.00;96355.03;5076593;28;19956;-73
2022/12/24 07:00:56;;;;;;;;;;;;;;;5.99;100.00;96352.44;5076181;28;19961;-73
2022/12/24 07:03:22;;;;;;;;;;;;;;;6.02;100.00;96356.44;5076409;28;19959;-73
2022/12/24 07:05:47;;;;;;;;;;;;;;;6.02;100.00;96352.03;5058511;28;20459;-73
2022/12/24 07:08:13;;;;;;;;;;;;;;;6.02;100.00;96356.44;5076448;28;20437;-73
2022/12/24 07:10:39;;;;;;;;;;;;;;;6.03;100.00;96363.28;5076102;28;20024;-73
2022/12/24 07:13:05;;;;;;;;;;;;;;;6.01;100.00;96371.25;5076757;28;20003;-73
2022/12/24 07:15:31;;;;;;;;;;;;;;;6.01;100.00;96375.69;5076643;28;20000;-73
2022/12/24 07:17:57;;;;;;;;;;;;;;;6.01;100.00;96380.88;5076019;28;19945;-73
2022/12/24 07:20:22;;;;;;;;;;;;;;;6.01;100.00;96392.09;5076300;28;19959;-73
2022/12/24 07:22:48;;;;;;;;;;;;;;;6.02;100.00;96387.69;5076175;28;19962;-72
2022/12/24 07:25:14;;;;;;;;;;;;;;;6.01;100.00;96391.28;5075727;28;19954;-73
2022/12/24 07:27:40;;;;;;;;;;;;;;;6.02;100.00;96395.50;5076186;28;19971;-74
2022/12/24 07:30:06;;;;;;;;;;;;;;;5.99;100.00;96401.88;5075669;28;19976;-73
2022/12/24 07:32:32;;;;;;;;;;;;;;;5.97;100.00;96406.47;5075461;28;19951;-73
2022/12/24 07:34:58;;;;;;;;;;;;;;;5.97;100.00;96400.47;5075927;28;19971;-73
2022/12/24 07:37:24;;;;;;;;;;;;;;;5.96;100.00;96396.25;5076016;28;20364;-73
2022/12/24 07:39:50;;;;;;;;;;;;;;;5.96;100.00;96406.66;5075683;28;19961;-73
2022/12/24 07:42:16;;;;;;;;;;;;;;;5.98;100.00;96417.69;5075108;28;19959;-73
2022/12/24 07:44:42;;;;;;;;;;;;;;;5.99;100.00;96411.50;5075680;28;20393;-73
2022/12/24 07:47:08;;;;;;;;;;;;;;;5.99;100.00;96411.50;5075426;28;19953;-73
2022/12/24 07:49:35;;;;;;;;;;;;;;;6.01;100.00;96417.31;5075595;28;19964;-73
2022/12/24 07:52:01;;;;;;;;;;;;;;;6.02;100.00;96417.13;5075341;28;19955;-73
2022/12/24 07:54:27;;;;;;;;;;;;;;;6.04;100.00;96427.34;5075372;28;20335;-73
2022/12/24 07:56:53;;;;;;;;;;;;;;;6.05;100.00;96431.56;5075494;28;19951;-73
2022/12/24 07:59:20;;;;;;;;;;;;;;;6.06;100.00;96431.38;5075161;28;19964;-73
2022/12/24 08:01:46;;;;;;;;;;;;;;;6.04;100.00;96424.75;5075553;28;19959;-73
2022/12/24 08:04:11;;;;;;;;;;;;;;;6.06;100.00;96428.75;5075309;28;19949;-73
2022/12/24 08:06:38;;;;;;;;;;;;;;;6.05;100.00;96437.56;5074624;28;19950;-73
2022/12/24 08:09:04;;;;;;;;;;;;;;;6.07;100.00;96438.19;5075566;28;20442;-73
2022/12/24 08:11:30;;;;;;;;;;;;;;;6.10;100.00;96442.22;5074937;28;19962;-73
2022/12/24 08:13:56;;;;;;;;;;;;;;;6.10;100.00;96448.22;5075054;28;19959;-73
2022/12/24 08:16:21;;;;;;;;;;;;;;;6.11;100.00;96446.44;5075136;28;20053;-73
2022/12/24 08:18:47;;;;;;;;;;;;;;;6.13;100.00;96454.84;5074899;28;20044;-72
2022/12/24 08:21:13;;;;;;;;;;;;;;;6.16;100.00;96456.28;5074939;28;20004;-73
2022/12/24 08:23:40;;;;;;;;;;;;;;;6.17;100.00;96453.47;5074615;28;19958;-72
2022/12/24 08:26:07;;;;;;;;;;;;;;;6.20;100.00;96453.09;5074716;28;20408;-72
2022/12/24 08:28:33;;;;;;;;;;;;;;;6.22;100.00;96452.91;5074385;28;19968;-73
2022/12/24 08:30:59;;;;;;;;;;;;;;;6.23;100.00;96459.72;5074740;28;20400;-72
2022/12/24 08:33:25;;;;;;;;;;;;;;;6.25;100.00;96455.13;5074458;28;19951;-73
2022/12/24 08:35:52;;;;;;;;;;;;;;;6.27;100.00;96448.72;5074379;28;20299;-72
2022/12/24 08:38:18;;;;;;;;;;;;;;;6.27;100.00;96453.16;5074819;28;19949;-73
2022/12/24 08:40:47;;;;;;;;;;;;;;;6.32;100.00;96460.38;5074481;28;19957;-73
2022/12/24 08:43:13;;;;;;;;;;;;;;;6.36;100.00;96461.59;5074758;28;19957;-74
2022/12/24 08:45:39;;;;;;;;;;;;;;;6.38;100.00;96463.03;5074276;28;20418;-73
2022/12/24 08:48:06;;;;;;;;;;;;;;;6.41;100.00;96459.25;5074366;28;19952;-72
2022/12/24 08:50:32;;;;;;;;;;;;;;;6.43;100.00;96465.06;5074015;28;19968;-73
2022/12/24 08:52:59;;;;;;;;;;;;;;;6.42;100.00;96469.47;5074322;28;20320;-72
2022/12/24 08:55:25;;;;;;;;;;;;;;;6.45;100.00;96473.50;5074412;28;19955;-72
2022/12/24 08:57:50;;;;;;;;;;;;;;;6.52;100.00;96471.75;5073908;28;20410;-72
2022/12/24 09:00:16;;;;;;;;;;;;;;;6.59;100.00;96469.97;5074146;28;19955;-73
2022/12/24 09:02:42;;;;;;;;;;;;;;;6.72;100.00;96474.47;5065308;28;19947;-72
2022/12/24 09:05:09;;;;;;;;;;;;;;;6.83;100.00;96473.13;5074142;28;20013;-73
2022/12/24 09:07:35;;;;;;;;;;;;;;;6.94;100.00;96480.38;5074148;28;20318;-73
2022/12/24 09:10:01;;;;;;;;;;;;;;;7.09;100.00;96491.47;5073928;28;19974;-72
2022/12/24 09:12:27;;;;;;;;;;;;;;;7.17;100.00;96484.50;5074139;28;19958;-72
2022/12/24 09:14:53;;;;;;;;;;;;;;;7.20;100.00;96479.69;5073813;28;20432;-72
2022/12/24 09:17:19;;;;;;;;;;;;;;;7.25;100.00;96489.53;5074171;28;19960;-72
2022/12/24 09:19:45;;;;;;;;;;;;;;;7.30;100.00;96493.16;5073866;28;19964;-73
2022/12/24 09:22:11;;;;;;;;;;;;;;;7.34;100.00;96496.19;5073606;28;19963;-72
2022/12/24 09:24:37;;;;;;;;;;;;;;;7.37;100.00;96497.59;5073879;28;19954;-72
2022/12/24 09:27:03;;;;;;;;;;;;;;;7.42;100.00;96492.59;5073571;28;20430;-72
2022/12/24 09:29:29;;;;;;;;;;;;;;;7.46;100.00;96492.00;5073838;28;19974;-72
2022/12/24 09:31:56;;;;;;;;;;;;;;;7.51;100.00;96494.00;5073591;28;19968;-73
2022/12/24 09:34:22;;;;;;;;;;;;;;;7.53;100.00;96503.25;5073567;28;20411;-73
2022/12/24 09:36:48;;;;;;;;;;;;;;;7.53;100.00;96511.06;5073961;28;19981;-73
2022/12/24 09:39:14;;;;;;;;;;;;;;;7.54;100.00;96511.91;5073639;28;20060;-72
2022/12/24 09:41:46;;;;;;;;;;;;;;;7.56;100.00;96520.34;5073531;28;20373;-73
2022/12/24 09:44:39;;;;;;;;;;;;;;;7.58;100.00;96520.97;5073512;28;20331;-73
2022/12/24 09:47:21;;;;;;;;;;;;;;;7.58;100.00;96507.91;5073886;28;19954;-72
2022/12/24 09:49:50;;;;;;;;;;;;;;;7.60;100.00;96507.69;5073450;28;20318;-73
2022/12/24 09:52:22;;;;;;;;;;;;;;;7.60;100.00;96508.50;5073947;28;19954;-74
2022/12/24 09:54:55;;;;;;;;;;;;;;;7.65;100.00;96506.09;5060023;28;19963;-73
2022/12/24 09:57:29;;;;;;;;;;;;;;;7.79;100.00;96520.00;5073607;28;19953;-72
2022/12/24 09:59:55;;;;;;;;;;;;;;;8.05;100.00;96514.00;5073816;28;19965;-72
2022/12/24 10:02:21;;;;;;;;;;;;;;;8.27;100.00;96509.41;5073979;28;20429;-72
2022/12/24 10:04:47;;;;;;;;;;;;;;;8.49;100.00;96506.59;5073966;28;19957;-72
2022/12/24 10:07:16;;;;;;;;;;;;;;;8.71;100.00;96509.75;5077540;28;19957;-72
2022/12/24 10:09:49;;;;;;;;;;;;;;;8.89;100.00;96511.75;5077599;28;19967;-73
2022/12/24 10:12:32;;;;;;;;;;;;;;;8.98;100.00;96513.13;5077245;28;19950;-73
2022/12/24 10:15:16;;;;;;;;;;;;;;;9.02;100.00;96505.66;5077494;28;20327;-73
2022/12/24 10:17:54;;;;;;;;;;;;;;;9.05;100.00;96511.31;5077427;28;19950;-72
2022/12/24 10:20:26;;;;;;;;;;;;;;;9.03;100.00;96520.34;5077256;28;19953;-72
2022/12/24 10:22:57;;;;;;;;;;;;;;;9.02;100.00;96513.50;5077140;28;19960;-72
2022/12/24 10:25:42;;;;;;;;;;;;;;;9.02;100.00;96527.38;5077209;28;19950;-73
2022/12/24 10:28:13;;;;;;;;;;;;;;;9.02;100.00;96516.13;5077017;28;20440;-72
2022/12/24 10:30:40;;;;;;;;;;;;;;;9.02;100.00;96530.00;5076884;28;19973;-72
2022/12/24 10:33:14;;;;;;;;;;;;;;;9.03;100.00;96526.41;5076808;28;20415;-73
2022/12/24 10:35:45;;;;;;;;;;;;;;;9.02;100.00;96530.00;5077464;28;19954;-72
2022/12/24 10:38:10;;;;;;;;;;;;;;;8.98;100.00;96513.13;5076879;28;19955;-73
2022/12/24 10:40:36;;;;;;;;;;;;;;;8.99;100.00;96514.75;5076858;28;20042;-72
2022/12/24 10:43:19;;;;;;;;;;;;;;;8.98;100.00;96522.78;5076496;28;19949;-73
2022/12/24 10:45:46;;;;;;;;;;;;;;;9.00;100.00;96512.91;5077090;28;19957;-72
2022/12/24 10:48:20;;;;;;;;;;;;;;;9.01;100.00;96502.25;5076516;28;19954;-72
2022/12/24 10:51:01;;;;;;;;;;;;;;;9.12;100.00;96509.44;5076913;28;19978;-72
2022/12/24 10:53:32;;;;;;;;;;;;;;;9.21;100.00;96530.16;5076384;28;20395;-73
2022/12/24 10:56:06;;;;;;;;;;;;;;;9.24;100.00;96524.50;5075945;28;19952;-73
2022/12/24 10:58:32;;;;;;;;;;;;;;;9.24;100.00;96521.88;5058874;28;19984;-73
2022/12/24 11:00:58;;;;;;;;;;;;;;;9.23;100.00;96515.06;5076415;28;19957;-72
2022/12/24 11:03:28;;;;;;;;;;;;;;;9.25;100.00;96528.72;5076198;28;19979;-73
2022/12/24 11:05:58;;;;;;;;;;;;;;;9.24;100.00;96532.34;5076423;28;19964;-73
2022/12/24 11:08:25;;;;;;;;;;;;;;;9.23;100.00;96526.31;5076457;28;19947;-73
2022/12/24 11:10:58;;;;;;;;;;;;;;;9.25;100.00;96534.75;5076520;28;20343;-74
2022/12/24 11:13:27;;;;;;;;;;;;;;;9.26;100.00;96525.91;5076237;28;19972;-72
2022/12/24 11:16:11;;;;;;;;;;;;;;;9.28;100.00;96529.13;5076145;28;19961;-72
2022/12/24 11:18:43;;;;;;;;;;;;;;;9.30;100.00;96540.19;5075884;28;19966;-73
2022/12/24 11:21:08;;;;;;;;;;;;;;;9.33;100.00;96544.22;5076352;28;19955;-72
2022/12/24 11:23:35;;;;;;;;;;;;;;;9.38;100.00;96535.72;5076014;28;20358;-72
2022/12/24 11:26:01;;;;;;;;;;;;;;;9.43;100.00;96525.44;5075546;28;19963;-72
2022/12/24 11:28:30;;;;;;;;;;;;;;;9.51;100.00;96526.00;5076027;28;19951;-72
2022/12/24 11:30:56;;;;;;;;;;;;;;;9.64;100.00;96519.09;5075905;28;19961;-73
2022/12/24 11:33:22;;;;;;;;;;;;;;;9.67;100.00;96514.22;5074680;28;20425;-73
2022/12/24 11:35:51;;;;;;;;;;;;;;;9.73;100.00;96534.34;5075552;28;19959;-74
2022/12/24 11:38:25;;;;;;;;;;;;;;;9.77;100.00;96523.47;5075887;28;19956;-72
2022/12/24 11:40:58;;;;;;;;;;;;;;;9.81;100.00;96522.84;5075773;28;19954;-73
2022/12/24 11:43:43;;;;;;;;;;;;;;;9.88;100.00;96533.25;5057818;28;19947;-73
2022/12/24 11:46:14;;;;;;;;;;;;;;;9.93;100.00;96521.16;5075837;28;20311;-72
2022/12/24 11:48:40;;;;;;;;;;;;;;;10.00;100.00;96531.56;5075460;28;19962;-73
2022/12/24 11:51:17;;;;;;;;;;;;;;;10.05;100.00;96520.47;5057713;28;20021;-72
2022/12/24 11:53:47;;;;;;;;;;;;;;;10.03;100.00;96502.31;5075379;28;20283;-73
2022/12/24 11:56:22;;;;;;;;;;;;;;;10.06;100.00;96506.34;5075911;28;19971;-73
2022/12/24 11:58:51;;;;;;;;;;;;;;;10.12;100.00;96511.53;5075566;28;20441;-73
2022/12/24 12:01:25;;;;;;;;;;;;;;;10.16;100.00;96499.63;5075276;28;20335;-72
2022/12/24 12:04:12;;;;;;;;;;;;;;;10.21;100.00;96496.34;5075405;28;19952;-72
2022/12/24 12:06:40;;;;;;;;;;;;;;;10.27;100.00;96500.75;5074401;28;19958;-72
2022/12/24 12:09:16;;;;;;;;;;;;;;;10.30;100.00;96504.78;5075270;28;19964;-73
2022/12/24 12:11:43;;;;;;;;;;;;;;;10.31;100.00;96494.09;5075364;28;19948;-72
2022/12/24 12:14:17;;;;;;;;;;;;;;;10.34;100.00;96506.75;5075082;28;20066;-72
2022/12/24 12:17:02;;;;;;;;;;;;;;;10.39;100.00;96493.00;5065032;28;19956;-72
2022/12/24 12:19:47;;;;;;;;;;;;;;;10.44;100.00;96480.06;5060456;28;19958;-72
2022/12/24 12:22:36;;;;;;;;;;;;;;;10.54;100.00;96495.28;5074865;28;19946;-72
2022/12/24 12:25:05;;;;;;;;;;;;;;;10.65;100.00;96481.47;5064211;28;19975;-71
2022/12/24 12:27:43;;;;;;;;;;;;;;;10.72;93.04;96436.81;5074677;28;20395;-72
2022/12/24 12:30:16;;;;;;;;;;;;;;;10.85;100.00;96491.75;5058671;28;19968;-73
2022/12/24 12:33:01;;;;;;;;;;;;;;;10.96;97.65;96471.84;5074915;28;19961;-73
2022/12/24 12:35:30;;;;;;;;;;;;;;;11.02;89.72;96436.84;5074441;28;19954;-73
2022/12/24 12:38:19;;;;;;;;;;;;;;;11.02;95.70;96478.03;5074809;28;19976;-72
2022/12/24 12:41:04;;;;;;;;;;;;;;;11.00;98.06;96504.50;5074736;28;19960;-73
2022/12/24 12:43:30;;;;;;;;;;;;;;;10.99;94.52;96491.63;5074696;28;20326;-73
2022/12/24 12:46:11;;;;;;;;;;;;;;;11.02;91.13;96460.47;5074604;28;19947;-73
2022/12/24 12:48:37;;;;;;;;;;;;;;;11.05;97.51;96502.03;5074489;28;19953;-73
2022/12/24 12:51:18;;;;;;;;;;;;;;;11.00;97.53;96501.06;5074259;28;19975;-72
2022/12/24 12:54:07;;;;;;;;;;;;;;;10.88;92.34;96470.34;5074346;28;19958;-72
2022/12/24 12:56:34;;;;;;;;;;;;;;;10.80;96.08;96491.59;5063564;28;19957;-73
2022/12/24 12:59:09;;;;;;;;;;;;;;;10.76;98.52;96508.78;5074452;28;19967;-72
2022/12/24 13:01:46;;;;;;;;;;;;;;;10.74;95.51;96489.84;5073562;28;19946;-72